Time;durP1;ratioP1;P1;durP2;ratioP2;P2;SDS_P1;SDS_P2;PMS_P1;PMS_P2;Temp;Humidity;BMP_temperature;BMP_pressure;BME280_temperature;BME280_humidity;BME280_pressure;Samples;Min_cycle;Max_cycle;Signal;HPM_P1;HPM_P2
2022/09/08 00:00:06;;;;;;;3.03;2.00;;;23.10;99.90;;;;;;1034964;28;20097;-69
2022/09/08 00:00:38;;;;;;;3.97;2.03;;;23.10;99.90;;;;;;1031575;28;20684;-68
2022/09/08 00:01:14;;;;;;;5.05;2.60;;;23.10;99.90;;;;;;1034993;28;20025;-68
2022/09/08 00:01:44;;;;;;;5.72;2.33;;;23.10;99.90;;;;;;1036831;28;20381;-68
2022/09/08 00:02:16;;;;;;;2.57;2.10;;;23.10;99.90;;;;;;1034792;28;20519;-68
2022/09/08 00:02:46;;;;;;;3.72;2.25;;;23.10;99.90;;;;;;1035013;28;20025;-68
2022/09/08 00:03:20;;;;;;;4.03;2.30;;;23.10;99.90;;;;;;1034826;28;20037;-68
2022/09/08 00:03:50;;;;;;;3.80;2.38;;;23.10;99.90;;;;;;1033599;28;20037;-68
2022/09/08 00:04:21;;;;;;;6.10;2.23;;;23.10;99.90;;;;;;1035237;28;20040;-68
2022/09/08 00:04:51;;;;;;;4.33;2.37;;;23.10;99.90;;;;;;1034372;28;20752;-68
2022/09/08 00:05:25;;;;;;;5.57;2.60;;;23.10;99.90;;;;;;1035173;28;20430;-69
2022/09/08 00:06:01;;;;;;;3.10;2.38;;;23.10;99.90;;;;;;1034811;28;20029;-67
2022/09/08 00:06:32;;;;;;;4.40;2.53;;;23.10;99.90;;;;;;1034570;28;20597;-69
2022/09/08 00:07:04;;;;;;;4.95;2.15;;;23.10;99.90;;;;;;1034951;28;20626;-71
2022/09/08 00:07:38;;;;;;;4.78;2.53;;;23.10;99.90;;;;;;1034709;28;20061;-68
2022/09/08 00:08:09;;;;;;;4.32;2.20;;;23.10;99.90;;;;;;1034957;28;20362;-67
2022/09/08 00:08:45;;;;;;;3.65;2.00;;;23.00;99.90;;;;;;1034648;28;20104;-68
2022/09/08 00:09:15;;;;;;;3.35;1.95;;;23.00;99.90;;;;;;1034750;28;20013;-68
2022/09/08 00:09:46;;;;;;;4.90;2.53;;;23.00;99.90;;;;;;1034847;28;20018;-67
2022/09/08 00:10:17;;;;;;;4.03;2.17;;;23.10;99.90;;;;;;1034979;28;20100;-68
2022/09/08 00:10:54;;;;;;;5.80;2.47;;;23.10;99.90;;;;;;1034638;28;20112;-68
2022/09/08 00:11:30;;;;;;;4.75;2.30;;;23.10;99.90;;;;;;1034952;28;20025;-68
2022/09/08 00:12:02;;;;;;;3.72;2.22;;;23.10;99.90;;;;;;1031081;28;20138;-68
2022/09/08 00:12:35;;;;;;;2.45;1.80;;;23.00;99.90;;;;;;1034978;28;20025;-68
2022/09/08 00:13:07;;;;;;;5.00;2.22;;;23.00;99.90;;;;;;1034857;28;20104;-68
2022/09/08 00:13:41;;;;;;;3.83;2.42;;;23.00;99.90;;;;;;1034137;28;20010;-68
2022/09/08 00:14:11;;;;;;;3.15;2.55;;;23.00;99.90;;;;;;1030622;28;20010;-68
2022/09/08 00:14:42;;;;;;;2.77;2.03;;;23.00;99.90;;;;;;1031363;28;20026;-68
2022/09/08 00:15:14;;;;;;;3.53;2.07;;;23.00;99.90;;;;;;1034876;28;21096;-68
2022/09/08 00:15:45;;;;;;;4.55;2.22;;;23.00;99.90;;;;;;1034849;28;20014;-68
2022/09/08 00:16:18;;;;;;;4.47;2.15;;;23.00;99.90;;;;;;1034933;28;20496;-68
2022/09/08 00:16:49;;;;;;;5.32;2.22;;;23.00;99.90;;;;;;1034874;28;20022;-68
2022/09/08 00:17:20;;;;;;;3.45;2.20;;;23.00;99.90;;;;;;1034689;28;20620;-68
2022/09/08 00:17:51;;;;;;;5.57;2.50;;;23.00;99.90;;;;;;1035184;28;20565;-68
2022/09/08 00:18:23;;;;;;;3.50;2.00;;;23.00;99.90;;;;;;1034328;28;20089;-68
2022/09/08 00:18:54;;;;;;;3.22;2.17;;;23.00;99.90;;;;;;1034711;28;20032;-67
2022/09/08 00:19:26;;;;;;;4.07;2.53;;;23.00;99.90;;;;;;1034696;28;20028;-68
2022/09/08 00:19:56;;;;;;;5.10;2.17;;;23.00;99.90;;;;;;1034829;28;20038;-69
2022/09/08 00:20:27;;;;;;;4.23;2.57;;;23.00;99.90;;;;;;1034765;28;20013;-68
2022/09/08 00:20:58;;;;;;;3.70;1.90;;;23.00;99.90;;;;;;1035040;28;20072;-68
2022/09/08 00:21:29;;;;;;;2.80;1.77;;;23.00;99.90;;;;;;1034773;28;20060;-68
2022/09/08 00:21:59;;;;;;;5.23;2.10;;;22.90;99.90;;;;;;1034942;28;20041;-68
2022/09/08 00:22:30;;;;;;;3.33;2.30;;;23.00;99.90;;;;;;1034641;28;20087;-73
2022/09/08 00:23:00;;;;;;;3.90;2.27;;;22.90;99.90;;;;;;1035018;28;20022;-67
2022/09/08 00:23:31;;;;;;;2.73;1.67;;;22.90;99.90;;;;;;1034799;28;20017;-67
2022/09/08 00:24:02;;;;;;;4.23;1.90;;;22.90;99.90;;;;;;1034929;28;20821;-68
2022/09/08 00:24:33;;;;;;;3.40;2.00;;;22.90;99.90;;;;;;1034604;28;20059;-68
2022/09/08 00:25:04;;;;;;;2.35;1.80;;;22.90;99.90;;;;;;1034930;28;20025;-68
2022/09/08 00:25:34;;;;;;;3.53;2.03;;;22.90;99.90;;;;;;1034604;28;20014;-68
2022/09/08 00:26:05;;;;;;;2.87;1.97;;;22.90;99.90;;;;;;1032599;28;20747;-68
2022/09/08 00:26:36;;;;;;;4.20;2.03;;;22.90;99.90;;;;;;1026499;28;20525;-68
2022/09/08 00:27:07;;;;;;;2.87;2.00;;;22.90;99.90;;;;;;1026947;28;20109;-68
2022/09/08 00:27:37;;;;;;;4.17;2.30;;;22.90;99.90;;;;;;1033196;28;20476;-68
2022/09/08 00:28:08;;;;;;;3.83;2.00;;;22.90;99.90;;;;;;1035190;28;20580;-68
2022/09/08 00:28:38;;;;;;;4.03;2.03;;;22.90;99.90;;;;;;1034418;28;20026;-68
2022/09/08 00:29:09;;;;;;;6.07;2.77;;;22.90;99.90;;;;;;1035240;28;20067;-68
2022/09/08 00:29:39;;;;;;;2.13;1.57;;;22.90;99.90;;;;;;1034556;28;20041;-68
2022/09/08 00:30:10;;;;;;;4.07;2.40;;;22.90;99.90;;;;;;1034839;28;20392;-68
2022/09/08 00:30:41;;;;;;;4.07;1.90;;;22.90;99.90;;;;;;1034569;28;20025;-68
2022/09/08 00:31:11;;;;;;;2.80;2.00;;;22.90;99.90;;;;;;1034863;28;20244;-68
2022/09/08 00:31:42;;;;;;;4.07;2.60;;;22.90;99.90;;;;;;1034970;28;20072;-68
2022/09/08 00:32:13;;;;;;;4.23;2.20;;;22.90;99.90;;;;;;1035410;28;20024;-68
2022/09/08 00:32:43;;;;;;;3.33;1.73;;;22.90;99.90;;;;;;1034892;28;20460;-68
2022/09/08 00:33:14;;;;;;;2.60;1.70;;;22.90;99.90;;;;;;1035218;28;20064;-68
2022/09/08 00:33:45;;;;;;;4.23;1.90;;;22.90;99.90;;;;;;1035174;28;20029;-68
2022/09/08 00:34:16;;;;;;;5.35;2.30;;;22.90;99.90;;;;;;1034933;28;20075;-68
2022/09/08 00:34:46;;;;;;;2.60;2.07;;;22.90;99.90;;;;;;1034692;28;20064;-68
2022/09/08 00:35:18;;;;;;;2.57;1.70;;;22.90;99.90;;;;;;1034615;28;20018;-68
2022/09/08 00:35:51;;;;;;;4.60;2.33;;;22.90;99.90;;;;;;1034881;28;20831;-68
2022/09/08 00:36:21;;;;;;;3.63;1.90;;;22.90;99.90;;;;;;1034689;28;20013;-68
2022/09/08 00:36:53;;;;;;;4.37;1.97;;;23.00;99.90;;;;;;1034993;28;20038;-68
2022/09/08 00:37:26;;;;;;;3.58;1.98;;;23.00;99.90;;;;;;1035011;28;20022;-69
2022/09/08 00:37:56;;;;;;;3.38;1.77;;;23.00;99.90;;;;;;1034803;28;20094;-70
2022/09/08 00:38:30;;;;;;;3.57;2.07;;;;;;;;;;1035391;28;20022;-69
2022/09/08 00:39:02;;;;;;;5.13;2.30;;;;;;;;;;1034449;28;20516;-69
2022/09/08 00:39:34;;;;;;;5.10;2.15;;;;;;;;;;1034536;28;20025;-69
2022/09/08 00:40:05;;;;;;;4.53;1.90;;;23.00;99.90;;;;;;1034850;28;20801;-69
2022/09/08 00:40:45;;;;;;;2.50;1.80;;;23.00;99.90;;;;;;1034841;28;20125;-71
2022/09/08 00:41:18;;;;;;;3.20;1.77;;;23.00;99.90;;;;;;1034841;28;20105;-69
2022/09/08 00:41:51;;;;;;;3.45;1.88;;;23.00;99.90;;;;;;1034878;28;20030;-69
2022/09/08 00:42:24;;;;;;;3.90;1.73;;;23.00;99.90;;;;;;1034031;28;20649;-69
2022/09/08 00:43:04;;;;;;;4.18;1.88;;;23.00;99.90;;;;;;1034535;28;20030;-68
2022/09/08 00:43:39;;;;;;;4.07;1.88;;;;;;;;;;1034558;28;20060;-68
2022/09/08 00:44:48;;;;;;;2.15;1.45;;;23.00;99.90;;;;;;1034673;28;20029;-68
2022/09/08 00:45:20;;;;;;;4.00;1.80;;;23.00;99.90;;;;;;1031375;28;20019;-69
2022/09/08 00:45:54;;;;;;;1.80;1.50;;;23.00;99.90;;;;;;1034660;28;20030;-68
2022/09/08 00:46:41;;;;;;;2.78;1.88;;;23.00;99.90;;;;;;1034462;28;20022;-67
2022/09/08 00:47:14;;;;;;;4.93;1.65;;;;;;;;;;1034825;28;20029;-65
2022/09/08 00:47:55;;;;;;;2.63;2.03;;;;;;;;;;1034801;28;20076;-64
2022/09/08 00:48:26;;;;;;;3.20;1.83;;;;;;;;;;1034941;28;20056;-65
2022/09/08 00:49:01;;;;;;;3.65;2.00;;;;;;;;;;1034386;28;20025;-64
2022/09/08 00:49:32;;;;;;;4.28;2.00;;;;;;;;;;1034133;28;20022;-65
2022/09/08 00:50:06;;;;;;;4.72;2.15;;;;;;;;;;1034647;28;20018;-64
2022/09/08 00:50:37;;;;;;;4.40;1.92;;;;;;;;;;1034451;28;20107;-65
2022/09/08 00:51:08;;;;;;;3.87;1.73;;;;;;;;;;1034710;28;20022;-64
2022/09/08 00:51:41;;;;;;;5.40;2.03;;;;;;;;;;1034217;28;20283;-65
2022/09/08 00:52:12;;;;;;;3.15;1.95;;;;;;;;;;1034593;28;20859;-64
2022/09/08 00:52:46;;;;;;;6.80;2.13;;;;;;;;;;1034409;28;20028;-65
2022/09/08 00:53:19;;;;;;;3.47;1.90;;;23.10;99.90;;;;;;1034571;28;20028;-64
2022/09/08 00:53:51;;;;;;;4.82;2.03;;;23.10;99.90;;;;;;1034798;28;20021;-64
2022/09/08 00:54:21;;;;;;;2.60;1.48;;;23.10;99.90;;;;;;1034924;28;20022;-65
2022/09/08 00:54:52;;;;;;;3.13;1.60;;;23.00;99.90;;;;;;1034645;28;20083;-65
2022/09/08 00:55:23;;;;;;;3.88;1.98;;;23.10;99.90;;;;;;1035085;28;20540;-64
2022/09/08 00:55:54;;;;;;;4.27;1.73;;;23.10;99.90;;;;;;1034727;28;20029;-65
2022/09/08 00:56:27;;;;;;;5.80;2.03;;;23.10;99.90;;;;;;1034986;28;21029;-64
2022/09/08 00:56:58;;;;;;;5.13;2.08;;;23.10;99.90;;;;;;1034691;28;20037;-65
2022/09/08 00:57:29;;;;;;;3.83;1.92;;;23.10;99.90;;;;;;1034582;28;20026;-64
2022/09/08 00:57:59;;;;;;;4.93;2.10;;;23.00;99.90;;;;;;1034162;28;20025;-65
2022/09/08 00:58:31;;;;;;;6.43;2.47;;;23.00;99.90;;;;;;1030315;28;20026;-63
2022/09/08 00:59:02;;;;;;;4.28;2.10;;;23.00;99.90;;;;;;1030345;28;20022;-65
2022/09/08 00:59:36;;;;;;;2.90;1.67;;;23.00;99.90;;;;;;1030805;28;20029;-65
2022/09/08 01:00:10;;;;;;;4.60;2.15;;;23.00;99.90;;;;;;1030867;28;20141;-65
2022/09/08 01:00:42;;;;;;;2.88;1.60;;;23.00;99.90;;;;;;1034370;28;20116;-64
2022/09/08 01:01:13;;;;;;;2.92;1.70;;;23.00;99.90;;;;;;1034403;28;20453;-64
2022/09/08 01:01:44;;;;;;;5.30;2.40;;;23.00;99.90;;;;;;1034424;28;20451;-65
2022/09/08 01:02:21;;;;;;;4.37;2.03;;;23.00;99.90;;;;;;1034307;28;20472;-65
2022/09/08 01:02:52;;;;;;;3.80;1.88;;;23.00;99.90;;;;;;1034624;28;20080;-64
2022/09/08 01:03:23;;;;;;;5.63;2.00;;;23.00;99.90;;;;;;1034100;28;20080;-65
2022/09/08 01:03:55;;;;;;;3.03;2.00;;;23.00;99.90;;;;;;1034558;28;20068;-65
2022/09/08 01:04:26;;;;;;;3.00;1.70;;;23.00;99.90;;;;;;1034354;28;20030;-64
2022/09/08 01:05:02;;;;;;;5.53;2.13;;;23.00;99.90;;;;;;1034428;28;20105;-64
2022/09/08 01:05:47;;;;;;;5.22;2.38;;;23.00;99.90;;;;;;1034226;28;20026;-64
2022/09/08 01:12:54;;;;;;;2.58;1.60;;;22.90;99.90;;;;;;1034358;28;20176;-64
2022/09/08 01:13:26;;;;;;;3.47;1.67;;;22.90;99.90;;;;;;1034476;28;20492;-64
2022/09/08 01:14:00;;;;;;;5.00;2.67;;;22.90;99.90;;;;;;1034316;28;20054;-64
2022/09/08 01:14:46;;;;;;;6.72;2.58;;;22.90;99.90;;;;;;1033311;28;20772;-64
2022/09/08 01:15:19;;;;;;;3.15;2.13;;;22.90;99.90;;;;;;1032437;28;20018;-64
2022/09/08 01:15:50;;;;;;;4.53;2.10;;;22.90;99.90;;;;;;1034651;28;20037;-64
2022/09/08 01:16:21;;;;;;;5.40;2.30;;;22.90;99.90;;;;;;1034864;28;20026;-65
2022/09/08 01:16:51;;;;;;;4.03;1.90;;;22.90;99.90;;;;;;1034435;28;20076;-64
2022/09/08 01:17:29;;;;;;;6.83;2.10;;;22.90;99.90;;;;;;1034676;28;20088;-64
2022/09/08 01:17:59;;;;;;;4.13;1.95;;;22.90;99.90;;;;;;1034695;28;20018;-64
2022/09/08 01:18:30;;;;;;;3.57;2.10;;;22.90;99.90;;;;;;1034242;28;20053;-65
2022/09/08 01:19:00;;;;;;;4.10;2.03;;;22.90;99.90;;;;;;1034379;28;20026;-65
2022/09/08 01:19:32;;;;;;;4.67;2.37;;;22.90;99.90;;;;;;1034498;28;20105;-64
2022/09/08 01:20:07;;;;;;;5.38;2.28;;;22.90;99.90;;;;;;1034602;28;20029;-64
2022/09/08 01:20:50;;;;;;;4.80;1.98;;;22.90;99.90;;;;;;1034362;28;20021;-64
2022/09/08 01:21:39;;;;;;;3.35;1.70;;;22.90;99.90;;;;;;1034246;28;20065;-64
2022/09/08 01:22:18;;;;;;;4.82;1.98;;;22.90;99.90;;;;;;1034254;28;20497;-65
2022/09/08 01:23:15;;;;;;;2.65;2.05;;;22.90;99.90;;;;;;1034707;28;20041;-64
2022/09/08 01:23:54;;;;;;;2.83;2.08;;;22.90;99.90;;;;;;1034760;28;20018;-64
2022/09/08 01:24:44;;;;;;;4.50;2.05;;;22.90;99.90;;;;;;1034696;28;20085;-64
2022/09/08 01:25:32;;;;;;;6.68;2.22;;;22.90;99.90;;;;;;1034550;28;20018;-65
2022/09/08 01:26:40;;;;;;;2.03;1.70;;;22.90;99.90;;;;;;1034342;28;20065;-64
2022/09/08 01:27:21;;;;;;;4.88;2.15;;;22.90;99.90;;;;;;1034214;28;20060;-64
2022/09/08 01:27:55;;;;;;;3.17;2.15;;;22.90;99.90;;;;;;1034181;28;20109;-64
2022/09/08 01:28:46;;;;;;;4.82;1.90;;;22.90;99.90;;;;;;1034287;28;20018;-63
2022/09/08 01:29:19;;;;;;;6.38;2.00;;;22.80;99.90;;;;;;1030797;28;20030;-64
2022/09/08 01:29:56;;;;;;;3.13;1.60;;;22.80;99.90;;;;;;1030064;28;20113;-64
2022/09/08 01:30:27;;;;;;;3.13;2.13;;;22.80;99.90;;;;;;1027082;28;20426;-63
2022/09/08 01:30:59;;;;;;;3.13;1.90;;;22.80;99.90;;;;;;1030088;28;20080;-63
2022/09/08 01:31:36;;;;;;;3.00;2.03;;;22.80;99.90;;;;;;1027610;28;20078;-63
2022/09/08 01:32:09;;;;;;;4.43;2.60;;;22.80;99.90;;;;;;1031657;28;20022;-64
2022/09/08 01:32:43;;;;;;;3.55;1.83;;;22.80;99.90;;;;;;1034300;28;20030;-65
2022/09/08 01:33:15;;;;;;;5.15;2.10;;;22.70;99.90;;;;;;1034618;28;20100;-64
2022/09/08 01:33:46;;;;;;;3.53;1.85;;;22.70;99.90;;;;;;1034583;28;20017;-64
2022/09/08 01:34:17;;;;;;;7.70;2.00;;;22.70;99.90;;;;;;1034324;28;20022;-64
2022/09/08 01:34:48;;;;;;;4.53;2.00;;;22.70;99.90;;;;;;1034225;28;20428;-64
2022/09/08 01:35:30;;;;;;;4.22;1.70;;;22.70;99.90;;;;;;1034450;28;20010;-63
2022/09/08 01:36:13;;;;;;;5.35;2.20;;;22.70;99.90;;;;;;1034272;28;20756;-64
2022/09/08 01:36:43;;;;;;;3.92;2.05;;;22.70;99.90;;;;;;1034351;28;20045;-64
2022/09/08 01:37:14;;;;;;;4.77;1.97;;;22.70;99.90;;;;;;1034157;28;20029;-63
2022/09/08 01:37:44;;;;;;;4.87;2.10;;;22.70;99.90;;;;;;1034395;28;20022;-63
2022/09/08 01:38:15;;;;;;;3.70;1.83;;;22.70;99.90;;;;;;1034322;28;20026;-62
2022/09/08 01:38:46;;;;;;;4.80;1.83;;;22.70;99.90;;;;;;1034873;28;20037;-62
2022/09/08 01:39:17;;;;;;;3.77;1.57;;;22.70;99.90;;;;;;1034376;28;20026;-63
2022/09/08 01:39:48;;;;;;;2.67;1.77;;;22.60;99.90;;;;;;1034701;28;20029;-62
2022/09/08 01:40:18;;;;;;;3.43;1.80;;;22.70;99.90;;;;;;1034622;28;20048;-63
2022/09/08 01:40:49;;;;;;;4.27;1.87;;;22.70;99.90;;;;;;1034679;28;20492;-63
2022/09/08 01:41:19;;;;;;;2.53;1.63;;;22.70;99.90;;;;;;1034341;28;20546;-63
2022/09/08 01:41:50;;;;;;;3.83;1.83;;;22.70;99.90;;;;;;1034495;28;20030;-63
2022/09/08 01:42:20;;;;;;;3.70;2.00;;;22.70;99.90;;;;;;998492;28;1039016;-63
2022/09/08 01:42:51;;;;;;;3.40;1.67;;;22.60;99.90;;;;;;1034991;28;20080;-62
2022/09/08 01:43:21;;;;;;;3.67;2.13;;;22.60;99.90;;;;;;1034699;28;20516;-62
2022/09/08 01:43:52;;;;;;;4.20;1.60;;;22.60;99.90;;;;;;1034718;28;20034;-62
2022/09/08 01:44:23;;;;;;;5.67;2.23;;;22.60;99.90;;;;;;1034645;28;20085;-63
2022/09/08 01:44:53;;;;;;;3.90;2.10;;;22.60;99.90;;;;;;1034863;28;20616;-63
2022/09/08 01:45:27;;;;;;;3.80;2.10;;;22.60;99.90;;;;;;1034735;28;20026;-63
2022/09/08 01:45:58;;;;;;;4.35;1.67;;;22.60;99.90;;;;;;1034780;28;20053;-63
2022/09/08 01:46:30;;;;;;;4.33;1.77;;;22.60;99.90;;;;;;1034692;28;20026;-64
2022/09/08 01:47:01;;;;;;;3.10;1.90;;;22.60;99.90;;;;;;1034732;28;20350;-63
2022/09/08 01:47:32;;;;;;;3.60;1.70;;;22.60;99.90;;;;;;1034613;28;20447;-64
2022/09/08 01:48:03;;;;;;;2.60;1.60;;;22.60;99.90;;;;;;1035015;28;20068;-63
2022/09/08 01:48:35;;;;;;;3.42;1.80;;;22.60;99.90;;;;;;1034605;28;20029;-62
2022/09/08 01:49:05;;;;;;;3.40;1.70;;;22.60;99.90;;;;;;1034971;28;20461;-63
2022/09/08 01:49:36;;;;;;;2.73;1.80;;;22.60;99.90;;;;;;1030561;28;20495;-62
2022/09/08 01:50:08;;;;;;;4.20;1.60;;;22.60;99.90;;;;;;1034962;28;20076;-63
2022/09/08 01:50:39;;;;;;;5.43;2.15;;;22.70;99.90;;;;;;1034723;28;20010;-62
2022/09/08 01:51:10;;;;;;;3.67;1.90;;;22.60;99.90;;;;;;1034489;28;20022;-62
2022/09/08 01:51:40;;;;;;;3.27;1.70;;;22.60;99.90;;;;;;1030201;28;20024;-63
2022/09/08 01:52:11;;;;;;;3.73;1.80;;;22.60;99.90;;;;;;1030669;28;20026;-62
2022/09/08 01:52:41;;;;;;;4.73;2.00;;;22.60;99.90;;;;;;1030328;28;20079;-63
2022/09/08 01:53:12;;;;;;;2.93;1.60;;;22.60;99.90;;;;;;1030573;28;20465;-63
2022/09/08 01:53:42;;;;;;;2.80;1.90;;;22.60;99.90;;;;;;1034386;28;20026;-63
2022/09/08 01:54:13;;;;;;;2.23;1.30;;;22.60;99.90;;;;;;1034432;28;20479;-63
2022/09/08 01:54:43;;;;;;;3.23;1.97;;;22.60;99.90;;;;;;1034439;28;20113;-63
2022/09/08 01:55:14;;;;;;;5.37;2.00;;;22.60;99.90;;;;;;1030385;28;20701;-63
2022/09/08 01:55:44;;;;;;;3.87;1.50;;;22.60;99.90;;;;;;1030447;28;20026;-64
2022/09/08 01:56:15;;;;;;;4.57;2.37;;;22.60;99.90;;;;;;1030317;28;20054;-64
2022/09/08 01:56:47;;;;;;;2.70;1.70;;;22.60;99.90;;;;;;1034720;28;20026;-64
2022/09/08 01:57:17;;;;;;;3.30;2.00;;;22.60;99.90;;;;;;1034510;28;20396;-64
2022/09/08 01:57:48;;;;;;;3.83;2.00;;;22.60;99.90;;;;;;1034797;28;20539;-64
2022/09/08 01:58:18;;;;;;;3.20;1.60;;;22.60;99.90;;;;;;1034699;28;20021;-63
2022/09/08 01:58:49;;;;;;;2.33;1.33;;;22.60;99.90;;;;;;1034780;28;20061;-64
2022/09/08 01:59:20;;;;;;;3.83;1.93;;;22.60;99.90;;;;;;1034194;28;20029;-64
2022/09/08 01:59:50;;;;;;;4.83;2.00;;;22.60;99.90;;;;;;1034506;28;20029;-64
2022/09/08 02:00:21;;;;;;;3.13;2.00;;;22.60;99.90;;;;;;1034347;28;20037;-63
2022/09/08 02:00:52;;;;;;;4.10;1.87;;;;;;;;;;1034434;28;20481;-64
2022/09/08 02:01:23;;;;;;;6.18;2.38;;;22.60;99.90;;;;;;1034566;28;20565;-64
2022/09/08 02:01:53;;;;;;;4.07;2.17;;;22.60;99.90;;;;;;1034539;28;20492;-65
2022/09/08 02:02:24;;;;;;;3.87;2.10;;;22.60;99.90;;;;;;1034409;28;20053;-64
2022/09/08 02:02:54;;;;;;;3.00;1.67;;;22.60;99.90;;;;;;1034389;28;20036;-64
2022/09/08 02:03:25;;;;;;;5.63;2.13;;;22.60;99.90;;;;;;1034405;28;20018;-64
2022/09/08 02:03:56;;;;;;;3.80;2.00;;;22.60;99.90;;;;;;1034894;28;20029;-64
2022/09/08 02:04:27;;;;;;;2.73;1.80;;;22.60;99.90;;;;;;1034720;28;20252;-64
2022/09/08 02:04:57;;;;;;;3.57;1.93;;;22.60;99.90;;;;;;1034852;28;20389;-63
2022/09/08 02:05:28;;;;;;;3.73;2.17;;;22.60;99.90;;;;;;1034241;28;20514;-63
2022/09/08 02:06:01;;;;;;;6.23;2.13;;;22.60;99.90;;;;;;1034453;28;20512;-64
2022/09/08 02:06:32;;;;;;;5.97;2.03;;;22.60;99.90;;;;;;1034031;28;20112;-63
2022/09/08 02:07:02;;;;;;;4.10;1.70;;;22.60;99.90;;;;;;1034395;28;20161;-64
2022/09/08 02:07:36;;;;;;;3.67;2.03;;;22.60;99.90;;;;;;1034024;28;20025;-64
2022/09/08 02:08:08;;;;;;;4.95;1.88;;;22.60;99.90;;;;;;1034863;28;20500;-64
2022/09/08 02:08:38;;;;;;;5.55;2.10;;;22.60;99.90;;;;;;1034690;28;20028;-64
2022/09/08 02:09:09;;;;;;;3.20;1.40;;;22.60;99.90;;;;;;1034986;28;20022;-63
2022/09/08 02:09:39;;;;;;;2.70;1.97;;;22.60;99.90;;;;;;1033978;28;20108;-63
2022/09/08 02:10:10;;;;;;;4.13;1.80;;;22.60;99.90;;;;;;1034638;28;20022;-63
2022/09/08 02:10:41;;;;;;;3.13;1.60;;;22.60;99.90;;;;;;1034263;28;20022;-64
2022/09/08 02:11:11;;;;;;;5.23;2.27;;;22.60;99.90;;;;;;1030609;28;20132;-64
2022/09/08 02:11:43;;;;;;;2.83;1.60;;;22.60;99.90;;;;;;1034005;28;20049;-64
2022/09/08 02:12:13;;;;;;;2.60;1.65;;;22.60;99.90;;;;;;1034420;28;20105;-65
2022/09/08 02:12:44;;;;;;;3.07;1.80;;;22.60;99.90;;;;;;1034299;28;20018;-63
2022/09/08 02:13:14;;;;;;;2.20;1.50;;;22.60;99.90;;;;;;1034938;28;20026;-63
2022/09/08 02:13:45;;;;;;;2.50;1.73;;;22.60;99.90;;;;;;1034428;28;20014;-63
2022/09/08 02:14:16;;;;;;;4.13;1.63;;;22.60;99.90;;;;;;1034927;28;20017;-63
2022/09/08 02:14:46;;;;;;;3.53;1.77;;;22.60;99.90;;;;;;1034830;28;20018;-63
2022/09/08 02:15:17;;;;;;;3.33;2.00;;;22.50;99.90;;;;;;1034664;28;20018;-63
2022/09/08 02:15:47;;;;;;;3.20;1.47;;;22.50;99.90;;;;;;1034739;28;20065;-63
2022/09/08 02:16:18;;;;;;;3.10;1.93;;;22.50;99.90;;;;;;1034472;28;20018;-63
2022/09/08 02:16:48;;;;;;;3.73;2.03;;;22.50;99.90;;;;;;1034229;28;20500;-63
2022/09/08 02:17:19;;;;;;;4.63;1.90;;;22.50;99.90;;;;;;1034545;28;20033;-63
2022/09/08 02:17:49;;;;;;;4.17;1.70;;;22.50;99.90;;;;;;1034490;28;20034;-64
2022/09/08 02:18:20;;;;;;;4.00;1.97;;;22.50;99.90;;;;;;1034066;28;20434;-63
2022/09/08 02:18:55;;;;;;;3.23;1.60;;;22.50;99.90;;;;;;1035085;28;20739;-63
2022/09/08 02:19:26;;;;;;;5.05;1.85;;;22.50;99.90;;;;;;1035196;28;20128;-63
2022/09/08 02:19:56;;;;;;;3.53;1.60;;;22.50;99.90;;;;;;1035253;28;20388;-64
2022/09/08 02:20:27;;;;;;;4.13;1.70;;;22.50;99.90;;;;;;1035386;28;20033;-62
2022/09/08 02:21:09;;;;;;;3.90;2.00;;;22.50;99.90;;;;;;1035213;28;20239;-63
2022/09/08 02:21:40;;;;;;;2.15;1.42;;;22.50;99.90;;;;;;1035325;28;20105;-63
2022/09/08 02:22:11;;;;;;;3.20;1.70;;;22.50;99.90;;;;;;1035041;28;20032;-63
2022/09/08 02:22:42;;;;;;;3.93;1.43;;;22.50;99.90;;;;;;1033753;28;20921;-63
2022/09/08 02:23:13;;;;;;;2.88;1.65;;;22.50;99.90;;;;;;1031377;28;20093;-63
2022/09/08 02:23:46;;;;;;;3.23;1.87;;;22.50;99.90;;;;;;1032638;28;20078;-63
2022/09/08 02:24:16;;;;;;;3.50;1.75;;;22.50;99.90;;;;;;1035428;28;20100;-63
2022/09/08 02:24:47;;;;;;;3.10;1.63;;;22.50;99.90;;;;;;1035263;28;20064;-63
2022/09/08 02:25:17;;;;;;;3.73;1.73;;;22.50;99.90;;;;;;1035070;28;20026;-64
2022/09/08 02:25:49;;;;;;;3.80;2.10;;;22.50;99.90;;;;;;1035232;28;20574;-63
2022/09/08 02:26:28;;;;;;;3.03;1.95;;;22.50;99.90;;;;;;1035478;28;20025;-62
2022/09/08 02:26:58;;;;;;;4.80;2.28;;;22.40;99.90;;;;;;1035545;28;20108;-63
2022/09/08 02:27:29;;;;;;;2.93;1.50;;;22.50;99.90;;;;;;1035477;28;20018;-63
2022/09/08 02:27:59;;;;;;;2.70;1.70;;;22.40;99.90;;;;;;1035567;28;20017;-63
2022/09/08 02:28:30;;;;;;;3.37;1.70;;;22.40;99.90;;;;;;1035278;28;20018;-63
2022/09/08 02:29:01;;;;;;;2.27;1.33;;;22.50;99.90;;;;;;1035228;28;20018;-63
2022/09/08 02:29:31;;;;;;;4.33;1.70;;;22.40;99.90;;;;;;1035481;28;20072;-63
2022/09/08 02:30:02;;;;;;;3.17;1.83;;;22.40;99.90;;;;;;1035759;28;20021;-62
2022/09/08 02:30:32;;;;;;;3.03;1.70;;;22.40;99.90;;;;;;1035366;28;20022;-63
2022/09/08 02:31:03;;;;;;;3.47;1.90;;;22.40;99.90;;;;;;1035622;28;20010;-63
2022/09/08 02:31:34;;;;;;;4.80;1.93;;;22.40;99.90;;;;;;1035284;28;20463;-63
2022/09/08 02:32:05;;;;;;;4.18;1.70;;;22.40;99.90;;;;;;1035595;28;20018;-63
2022/09/08 02:32:36;;;;;;;5.53;2.07;;;22.40;99.90;;;;;;1035545;28;20049;-63
2022/09/08 02:33:07;;;;;;;2.50;1.53;;;22.40;99.90;;;;;;1035697;28;20014;-62
2022/09/08 02:33:39;;;;;;;2.70;1.70;;;22.40;99.90;;;;;;1035383;28;20028;-63
2022/09/08 02:34:10;;;;;;;4.88;2.30;;;22.40;99.90;;;;;;1035446;28;20572;-63
2022/09/08 02:34:41;;;;;;;4.73;1.90;;;22.40;99.90;;;;;;1035367;28;20341;-63
2022/09/08 02:35:11;;;;;;;4.60;2.20;;;22.40;99.90;;;;;;1035186;28;20420;-63
2022/09/08 02:35:42;;;;;;;3.33;1.83;;;22.40;99.90;;;;;;1035033;28;20010;-65
2022/09/08 02:36:13;;;;;;;6.50;2.50;;;22.40;99.90;;;;;;1035209;28;20560;-64
2022/09/08 02:36:43;;;;;;;3.87;1.83;;;22.40;99.90;;;;;;1035378;28;20179;-64
2022/09/08 02:37:14;;;;;;;6.67;1.90;;;22.40;99.90;;;;;;1035132;28;20045;-62
2022/09/08 02:37:45;;;;;;;4.07;1.90;;;22.40;99.90;;;;;;1035624;28;20602;-67
2022/09/08 02:38:15;;;;;;;3.23;1.20;;;22.40;99.90;;;;;;1035387;28;20025;-64
2022/09/08 02:38:50;;;;;;;6.00;1.80;;;22.40;99.90;;;;;;1035655;28;20018;-63
2022/09/08 02:39:21;;;;;;;6.28;2.17;;;22.50;99.90;;;;;;1035191;28;20013;-64
2022/09/08 02:39:52;;;;;;;4.82;2.00;;;22.50;99.90;;;;;;1035232;28;20033;-64
2022/09/08 02:40:23;;;;;;;5.67;1.67;;;22.50;99.90;;;;;;1035011;28;20021;-63
2022/09/08 02:40:53;;;;;;;3.35;1.58;;;22.50;99.90;;;;;;1034955;28;20033;-65
2022/09/08 02:41:27;;;;;;;2.93;1.73;;;22.50;99.90;;;;;;1035098;28;20554;-64
2022/09/08 02:41:57;;;;;;;3.85;1.73;;;22.50;99.90;;;;;;1030884;28;20019;-63
2022/09/08 02:42:28;;;;;;;4.57;1.60;;;22.50;99.90;;;;;;1031291;28;20164;-63
2022/09/08 02:43:01;;;;;;;5.27;1.60;;;22.50;99.90;;;;;;1035285;28;20033;-63
2022/09/08 02:43:35;;;;;;;4.50;2.08;;;22.50;99.90;;;;;;1035209;28;20060;-63
2022/09/08 02:44:05;;;;;;;4.38;1.95;;;22.50;99.90;;;;;;1035433;28;20044;-64
2022/09/08 02:44:36;;;;;;;4.90;1.63;;;22.50;99.90;;;;;;1035471;28;20033;-63
2022/09/08 02:45:08;;;;;;;4.80;1.50;;;22.50;99.90;;;;;;1035662;28;20029;-62
2022/09/08 02:45:40;;;;;;;3.78;1.55;;;22.50;99.90;;;;;;1034720;28;20471;-63
2022/09/08 02:46:11;;;;;;;3.42;1.67;;;22.50;99.90;;;;;;1035159;28;20022;-63
2022/09/08 02:46:42;;;;;;;4.15;1.90;;;22.50;99.90;;;;;;1035102;28;20029;-63
2022/09/08 02:47:12;;;;;;;3.25;1.85;;;22.50;99.90;;;;;;1035129;28;20040;-63
2022/09/08 02:47:43;;;;;;;4.70;1.90;;;22.50;99.90;;;;;;1035177;28;20364;-63
2022/09/08 02:48:14;;;;;;;2.37;1.50;;;22.50;99.90;;;;;;1035497;28;20022;-63
2022/09/08 02:48:45;;;;;;;3.30;1.80;;;22.50;99.90;;;;;;1034929;28;20109;-63
2022/09/08 02:49:15;;;;;;;4.37;2.10;;;22.50;99.90;;;;;;1035078;28;20014;-63
2022/09/08 02:49:46;;;;;;;4.73;1.90;;;22.50;99.90;;;;;;1030796;28;20014;-62
2022/09/08 02:50:16;;;;;;;4.00;1.73;;;22.50;99.90;;;;;;1031331;28;20089;-62
2022/09/08 02:50:47;;;;;;;2.80;1.80;;;22.50;99.90;;;;;;1035163;28;20010;-62
2022/09/08 02:51:18;;;;;;;5.00;1.97;;;22.50;99.90;;;;;;1034945;28;20125;-63
2022/09/08 02:51:49;;;;;;;2.35;1.70;;;22.50;99.90;;;;;;1035487;28;20129;-62
2022/09/08 02:52:19;;;;;;;3.37;1.40;;;22.50;99.90;;;;;;1035526;28;20021;-62
2022/09/08 02:52:50;;;;;;;3.07;1.53;;;22.50;99.90;;;;;;1035229;28;20033;-62
2022/09/08 02:53:20;;;;;;;4.27;1.70;;;22.40;99.90;;;;;;1035556;28;20022;-62
2022/09/08 02:53:54;;;;;;;2.40;1.40;;;22.50;99.90;;;;;;1035405;28;20056;-62
2022/09/08 02:54:25;;;;;;;3.42;1.70;;;22.50;99.90;;;;;;1035325;28;20707;-62
2022/09/08 02:54:55;;;;;;;4.57;1.93;;;22.50;99.90;;;;;;1035188;28;20452;-62
2022/09/08 02:55:26;;;;;;;2.97;1.77;;;22.50;99.90;;;;;;1035523;28;20014;-63
2022/09/08 02:55:58;;;;;;;3.85;1.60;;;22.50;99.90;;;;;;1035222;28;20021;-63
2022/09/08 02:56:29;;;;;;;3.80;1.90;;;22.50;99.90;;;;;;1035604;28;20444;-63